createdAt,value
2022-10-09T00:01:21.060Z,15.05
2022-10-09T00:06:25.600Z,15.06
2022-10-09T00:11:29.350Z,15.06
2022-10-09T00:16:32.865Z,15.03
2022-10-09T00:21:37.072Z,15.05
2022-10-09T00:26:41.238Z,15.04
2022-10-09T00:31:44.924Z,15.05
2022-10-09T00:36:48.653Z,15.06
2022-10-09T00:41:52.360Z,15.04
2022-10-09T00:46:56.169Z,15.04
2022-10-09T00:52:02.460Z,15.05
2022-10-09T00:57:06.072Z,15.05
2022-10-09T01:02:09.738Z,15.04
2022-10-09T01:07:19.181Z,15.03
2022-10-09T01:12:27.782Z,15.04
2022-10-09T01:17:36.911Z,15.03
2022-10-09T01:22:46.434Z,15.05
2022-10-09T01:27:50.204Z,15.03
2022-10-09T01:32:54.681Z,15.02
2022-10-09T01:37:59.487Z,15.03
2022-10-09T01:43:03.551Z,15.03
2022-10-09T01:48:10.291Z,15.03
2022-10-09T01:53:16.450Z,15.03
2022-10-09T01:58:22.965Z,15.02
2022-10-09T02:03:28.419Z,15.03
2022-10-09T02:08:33.776Z,15.03
2022-10-09T02:13:38.327Z,15.03
2022-10-09T02:18:45.210Z,15.02
2022-10-09T02:23:50.357Z,15.03
2022-10-09T02:28:54.318Z,15.03
2022-10-09T02:33:58.936Z,15.03
2022-10-09T02:39:02.447Z,15.02
2022-10-09T02:44:06.059Z,15.01
2022-10-09T02:49:09.551Z,14.99
2022-10-09T02:54:13.450Z,15.01
2022-10-09T03:39:25.268Z,15.03
2022-10-09T03:44:29.186Z,14.99
2022-10-09T03:49:32.806Z,15.00
2022-10-09T03:54:36.317Z,14.98
2022-10-09T03:59:39.737Z,14.99
2022-10-09T04:04:43.252Z,14.98
2022-10-09T04:09:46.759Z,15.00
2022-10-09T04:14:50.280Z,14.98
2022-10-09T04:19:53.807Z,14.99
2022-10-09T04:24:57.297Z,14.98
2022-10-09T04:30:01.383Z,14.99
2022-10-09T04:35:06.103Z,14.98
2022-10-09T04:40:10.197Z,14.98
2022-10-09T04:45:14.028Z,14.97
2022-10-09T04:50:17.647Z,14.96
2022-10-09T04:55:21.373Z,14.99
2022-10-09T05:00:25.088Z,14.95
2022-10-09T05:05:28.698Z,14.97
2022-10-09T05:10:32.835Z,14.98
2022-10-09T05:15:37.977Z,14.96
2022-10-09T05:20:41.766Z,14.96
2022-10-09T05:25:53.917Z,14.97
2022-10-09T05:30:57.530Z,14.97
2022-10-09T05:36:01.972Z,14.97
2022-10-09T05:41:06.516Z,14.98
2022-10-09T05:46:10.973Z,14.99
2022-10-09T05:51:15.897Z,14.98
2022-10-09T05:56:20.727Z,14.99
2022-10-09T06:01:25.421Z,15.04
2022-10-09T06:06:29.716Z,15.08
2022-10-09T06:11:34.657Z,15.11
2022-10-09T06:16:38.868Z,15.10
2022-10-09T06:21:42.862Z,15.12
2022-10-09T06:26:46.227Z,15.12
2022-10-09T06:31:49.848Z,15.12
2022-10-09T06:36:53.465Z,15.11
2022-10-09T06:41:56.877Z,15.11
2022-10-09T06:47:00.389Z,15.11
2022-10-09T06:52:03.933Z,15.10
2022-10-09T06:57:07.852Z,15.13
2022-10-09T07:02:11.491Z,15.14
2022-10-09T07:07:15.382Z,15.14
2022-10-09T07:12:19.301Z,15.13
2022-10-09T07:17:22.807Z,15.14
2022-10-09T07:22:27.100Z,15.14
2022-10-09T07:27:30.762Z,15.14
2022-10-09T07:32:34.167Z,15.15
2022-10-09T07:37:37.588Z,15.13
2022-10-09T07:42:41.028Z,15.13
2022-10-09T07:47:44.610Z,15.12
2022-10-09T07:52:48.422Z,15.13
2022-10-09T07:57:52.276Z,15.13
2022-10-09T08:02:56.136Z,15.15
2022-10-09T08:07:59.597Z,15.15
2022-10-09T08:13:03.219Z,15.15
2022-10-09T08:18:06.857Z,15.16
2022-10-09T08:23:10.350Z,15.16
2022-10-09T08:28:13.907Z,15.15
2022-10-09T08:33:21.332Z,15.16
2022-10-09T08:38:46.063Z,15.17
2022-10-09T08:43:52.971Z,15.18
2022-10-09T08:48:56.587Z,15.19
2022-10-09T08:54:04.616Z,15.19
2022-10-09T08:59:10.411Z,15.20
2022-10-09T09:04:34.160Z,15.19
2022-10-09T09:09:42.139Z,15.20
2022-10-09T09:14:52.356Z,15.20
2022-10-09T09:20:00.720Z,15.24
2022-10-09T09:25:14.847Z,15.28
2022-10-09T09:30:19.702Z,15.37
2022-10-09T09:35:27.717Z,15.41
2022-10-09T09:40:37.720Z,15.42
2022-10-09T09:45:43.650Z,15.52
2022-10-09T09:51:05.076Z,15.60
2022-10-09T09:56:15.674Z,15.64
2022-10-09T10:01:23.384Z,15.69
2022-10-09T10:06:29.956Z,15.71
2022-10-09T10:11:35.416Z,15.63
2022-10-09T10:16:39.345Z,15.67
2022-10-09T10:21:47.386Z,15.69
2022-10-09T10:26:55.592Z,15.69
2022-10-09T10:32:02.807Z,15.70
2022-10-09T10:37:14.608Z,15.71
2022-10-09T10:42:20.578Z,15.71
2022-10-09T10:47:27.269Z,15.70
2022-10-09T10:52:36.067Z,15.67
2022-10-09T10:57:46.827Z,15.69
2022-10-09T11:03:13.906Z,15.67
2022-10-09T11:08:30.490Z,15.68
2022-10-09T11:13:35.187Z,15.67
2022-10-09T11:18:56.966Z,15.65
2022-10-09T11:24:12.157Z,15.65
2022-10-09T11:29:18.117Z,15.64
2022-10-09T11:34:27.256Z,15.63
2022-10-09T11:39:32.564Z,15.60
2022-10-09T11:44:44.947Z,15.61
2022-10-09T11:49:57.477Z,15.60
2022-10-09T11:55:15.956Z,15.60
2022-10-09T12:00:29.822Z,15.59
2022-10-09T12:05:40.184Z,15.60
2022-10-09T12:10:47.137Z,15.59
2022-10-09T12:15:54.276Z,15.57
2022-10-09T12:20:59.077Z,15.55
2022-10-09T12:26:03.416Z,15.55
2022-10-09T12:31:13.436Z,15.54
2022-10-09T12:36:22.817Z,15.56
2022-10-09T12:41:28.356Z,15.55
2022-10-09T12:46:32.597Z,15.54
2022-10-09T12:51:36.076Z,15.53
2022-10-09T12:56:40.007Z,15.54
2022-10-09T13:01:43.885Z,15.54
2022-10-09T13:06:48.340Z,15.54
2022-10-09T13:11:54.116Z,15.54
2022-10-09T13:16:57.782Z,15.50
2022-10-09T13:22:02.336Z,15.53
2022-10-09T13:27:05.900Z,15.53
2022-10-09T13:32:11.906Z,15.50
2022-10-09T13:37:15.828Z,15.52
2022-10-09T13:42:19.622Z,15.53
2022-10-09T13:47:24.703Z,15.52
2022-10-09T13:52:28.427Z,15.51
2022-10-09T13:57:32.320Z,15.51
2022-10-09T14:02:36.347Z,15.49
2022-10-09T14:07:40.078Z,15.48
2022-10-09T14:12:43.787Z,15.49
2022-10-09T14:17:47.524Z,15.50
2022-10-09T14:22:51.645Z,15.49
2022-10-09T14:27:55.387Z,15.48
2022-10-09T14:32:59.166Z,15.47
2022-10-09T14:38:02.600Z,15.49
2022-10-09T14:43:06.099Z,15.48
2022-10-09T14:48:09.608Z,15.50
2022-10-09T14:53:12.926Z,15.48
2022-10-09T14:58:16.444Z,15.48
2022-10-09T15:03:20.057Z,15.47
2022-10-09T15:08:23.681Z,15.48
2022-10-09T15:13:27.365Z,15.47
2022-10-09T15:18:31.317Z,15.48
2022-10-09T15:23:34.831Z,15.47
2022-10-09T15:28:39.229Z,15.47
2022-10-09T15:33:42.877Z,15.48
2022-10-09T15:38:46.867Z,15.47
2022-10-09T15:43:50.727Z,15.46
2022-10-09T15:48:54.767Z,15.45
2022-10-09T15:53:58.894Z,15.45
2022-10-09T15:59:02.497Z,15.45
2022-10-09T16:04:06.352Z,15.44
2022-10-09T16:09:10.260Z,15.46
2022-10-09T16:14:14.190Z,15.44
2022-10-09T16:19:17.776Z,15.44
2022-10-09T16:24:21.366Z,15.44
2022-10-09T16:29:25.231Z,15.45
2022-10-09T16:34:28.747Z,15.44
2022-10-09T16:39:32.260Z,15.43
2022-10-09T16:44:35.878Z,15.44
2022-10-09T16:49:39.388Z,15.43
2022-10-09T16:54:42.900Z,15.42
2022-10-09T16:59:46.422Z,15.41
2022-10-09T17:04:49.927Z,15.42
2022-10-09T17:09:54.137Z,15.43
2022-10-09T17:14:57.658Z,15.43
2022-10-09T17:20:01.568Z,15.43
2022-10-09T17:25:06.165Z,15.43
2022-10-09T17:30:11.307Z,15.42
2022-10-09T17:35:14.917Z,15.42
2022-10-09T17:40:18.666Z,15.43
2022-10-09T17:45:22.156Z,15.41
2022-10-09T17:50:25.641Z,15.44
2022-10-09T17:55:29.308Z,15.42
2022-10-09T18:00:32.891Z,15.43
2022-10-09T18:05:41.382Z,15.42
2022-10-09T18:10:45.581Z,15.42
2022-10-09T18:15:49.167Z,15.42
2022-10-09T18:20:52.812Z,15.39
2022-10-09T18:25:56.410Z,15.39
2022-10-09T18:30:59.931Z,15.41
2022-10-09T18:36:04.607Z,15.41
2022-10-09T18:41:09.156Z,15.41
2022-10-09T18:46:13.197Z,15.41
2022-10-09T18:51:18.687Z,15.39
2022-10-09T18:56:22.620Z,15.39
2022-10-09T19:01:26.273Z,15.39
2022-10-09T19:06:29.946Z,15.40
2022-10-09T19:11:34.460Z,15.38
2022-10-09T19:16:38.217Z,15.38
2022-10-09T19:21:43.725Z,15.38
2022-10-09T19:26:47.287Z,15.39
2022-10-09T19:31:51.267Z,15.37
2022-10-09T19:36:54.869Z,15.37
2022-10-09T19:41:58.546Z,15.36
2022-10-09T19:47:02.176Z,15.38
2022-10-09T19:52:05.720Z,15.37
2022-10-09T19:57:09.248Z,15.38
2022-10-09T20:02:12.906Z,15.34
2022-10-09T20:07:16.328Z,15.36
2022-10-09T20:12:19.945Z,15.35
2022-10-09T20:17:23.772Z,15.37
2022-10-09T20:22:27.389Z,15.36
2022-10-09T20:27:31.106Z,15.34
2022-10-09T20:32:36.607Z,15.34
2022-10-09T20:37:40.085Z,15.34
2022-10-09T20:42:43.796Z,15.34
2022-10-09T20:47:47.420Z,15.33
2022-10-09T20:52:51.149Z,15.33
2022-10-09T20:57:55.097Z,15.35
2022-10-09T21:02:58.796Z,15.33
2022-10-09T21:08:02.287Z,15.32
2022-10-09T21:13:05.800Z,15.32
2022-10-09T21:18:09.317Z,15.34
2022-10-09T21:23:13.910Z,15.33
2022-10-09T21:28:18.073Z,15.32
2022-10-09T21:33:22.191Z,15.33
2022-10-09T21:38:25.736Z,15.34
2022-10-09T21:43:29.457Z,15.31
2022-10-09T21:48:32.876Z,15.34
2022-10-09T21:53:36.577Z,15.32
2022-10-09T21:58:41.955Z,15.29
2022-10-09T22:03:46.990Z,15.32
2022-10-09T22:08:50.506Z,15.32
2022-10-09T22:13:54.976Z,15.30
2022-10-09T22:18:58.456Z,15.29
2022-10-09T22:24:02.598Z,15.33
2022-10-09T22:29:06.097Z,15.31
2022-10-09T22:34:09.902Z,15.30
2022-10-09T22:39:13.648Z,15.30
2022-10-09T22:44:17.200Z,15.26
2022-10-09T22:49:20.769Z,15.30
2022-10-09T22:54:24.401Z,15.26
2022-10-09T22:59:28.417Z,15.28
2022-10-09T23:04:31.927Z,15.27
2022-10-09T23:09:35.446Z,15.28
2022-10-09T23:14:38.960Z,15.29
2022-10-09T23:19:42.480Z,15.26
2022-10-09T23:24:46.089Z,15.25
2022-10-09T23:29:49.806Z,15.26
2022-10-09T23:34:53.327Z,15.28
2022-10-09T23:39:56.847Z,15.26
2022-10-09T23:45:00.469Z,15.25
2022-10-09T23:50:04.386Z,15.23
2022-10-09T23:55:08.577Z,15.24
